LTCU

Bingöl Çeltiksuyu

Bingöl, Turkey
TAF LTCU 201340Z 2015/2024 27009KT 9999 BKN030 BKN090 TEMPO 2015/2019 -TSRA FEW025CB BKN030
Issued Valid From Valid To
Apr-20 @ 13:40 UTC
(5 hours ago)
Apr-20 @ 15:00 UTC
(4 hours ago)
Apr-21 @ 00:00 UTC
(in 5 hours)
Apr-20 @ 15:00 to Apr-21 @ 00:00
TAF LTCU 201340Z 2015/2024 27009KT 9999 BKN030 BKN090
Wind Visibility Clouds
270° at 9 knots 10,000+ meters
  • Broken at 3,000' AGL
  • Broken at 9,000' AGL
Temporary Apr-20 @ 15:00 to Apr-20 @ 19:00
TEMPO 2015/2019 -TSRA FEW025CB BKN030
Clouds Conditions
  • Few at 2,500' AGL
  • Broken at 3,000' AGL
  • Light Thunderstorm
  • Light Rain
TAF LTCU 201340Z 2015/2024 27009KT 9999 BKN030 BKN090 TEMPO 2015/2019 -TSRA FEW025CB BKN030
Issued Apr-20 @ 13:40 UTC
(5 hours ago)
Valid From Apr-20 @ 15:00 UTC
(4 hours ago)
Valid To Apr-21 @ 00:00 UTC
(in 5 hours)
Apr-20 @ 15:00 - Apr-21 @ 00:00
Wind Visibility
270° at 9 knots 10,000+ meters
Clouds
  • Broken at 3,000' AGL
  • Broken at 9,000' AGL
Temporary Apr-20 @ 15:00 - Apr-20 @ 19:00
Clouds
  • Few at 2,500' AGL
  • Broken at 3,000' AGL
Conditions
  • Light Thunderstorm
  • Light Rain